sensor_id;sensor_type;location;lat;lon;timestamp;P1;durP1;ratioP1;P2;durP2;ratioP2
23670;SDS011;12012;51.998;7.614;2022-10-26T00:00:05;13.18;;;8.18;;
23670;SDS011;12012;51.998;7.614;2022-10-26T00:02:31;9.57;;;7.53;;
23670;SDS011;12012;51.998;7.614;2022-10-26T00:04:57;8.50;;;7.30;;
23670;SDS011;12012;51.998;7.614;2022-10-26T00:07:23;9.93;;;8.48;;
23670;SDS011;12012;51.998;7.614;2022-10-26T00:09:48;9.07;;;7.10;;
23670;SDS011;12012;51.998;7.614;2022-10-26T00:12:14;10.20;;;7.05;;
23670;SDS011;12012;51.998;7.614;2022-10-26T00:14:39;9.73;;;8.13;;
23670;SDS011;12012;51.998;7.614;2022-10-26T00:17:05;9.48;;;7.55;;
23670;SDS011;12012;51.998;7.614;2022-10-26T00:19:34;12.18;;;8.57;;
23670;SDS011;12012;51.998;7.614;2022-10-26T00:21:59;13.20;;;9.07;;
23670;SDS011;12012;51.998;7.614;2022-10-26T00:24:25;12.20;;;7.90;;
23670;SDS011;12012;51.998;7.614;2022-10-26T00:26:50;10.00;;;7.60;;
23670;SDS011;12012;51.998;7.614;2022-10-26T00:29:16;10.25;;;7.80;;
23670;SDS011;12012;51.998;7.614;2022-10-26T00:31:42;14.40;;;8.13;;
23670;SDS011;12012;51.998;7.614;2022-10-26T00:34:08;11.68;;;7.93;;
23670;SDS011;12012;51.998;7.614;2022-10-26T00:36:35;14.02;;;7.63;;
23670;SDS011;12012;51.998;7.614;2022-10-26T00:39:00;7.85;;;6.90;;
23670;SDS011;12012;51.998;7.614;2022-10-26T00:41:28;12.52;;;8.52;;
23670;SDS011;12012;51.998;7.614;2022-10-26T00:43:56;9.07;;;6.97;;
23670;SDS011;12012;51.998;7.614;2022-10-26T00:46:26;8.25;;;6.82;;
23670;SDS011;12012;51.998;7.614;2022-10-26T00:48:56;9.55;;;7.45;;
23670;SDS011;12012;51.998;7.614;2022-10-26T00:51:30;10.27;;;7.40;;
23670;SDS011;12012;51.998;7.614;2022-10-26T00:53:59;9.50;;;7.70;;
23670;SDS011;12012;51.998;7.614;2022-10-26T00:56:28;15.32;;;9.88;;
23670;SDS011;12012;51.998;7.614;2022-10-26T00:58:56;9.45;;;7.47;;
23670;SDS011;12012;51.998;7.614;2022-10-26T01:01:27;15.57;;;8.82;;
23670;SDS011;12012;51.998;7.614;2022-10-26T01:03:55;9.77;;;7.72;;
23670;SDS011;12012;51.998;7.614;2022-10-26T01:06:21;9.38;;;7.85;;
23670;SDS011;12012;51.998;7.614;2022-10-26T01:08:47;12.43;;;8.63;;
23670;SDS011;12012;51.998;7.614;2022-10-26T01:11:13;8.15;;;7.05;;
23670;SDS011;12012;51.998;7.614;2022-10-26T01:13:38;10.35;;;8.45;;
23670;SDS011;12012;51.998;7.614;2022-10-26T01:18:42;11.68;;;6.93;;
23670;SDS011;12012;51.998;7.614;2022-10-26T01:27:49;12.55;;;7.70;;
23670;SDS011;12012;51.998;7.614;2022-10-26T01:35:48;8.95;;;6.35;;
23670;SDS011;12012;51.998;7.614;2022-10-26T01:44:06;11.15;;;6.70;;
23670;SDS011;12012;51.998;7.614;2022-10-26T01:46:38;7.00;;;5.68;;
23670;SDS011;12012;51.998;7.614;2022-10-26T01:49:11;11.77;;;8.18;;
23670;SDS011;12012;51.998;7.614;2022-10-26T01:51:39;6.78;;;6.07;;
23670;SDS011;12012;51.998;7.614;2022-10-26T01:54:07;8.95;;;6.65;;
23670;SDS011;12012;51.998;7.614;2022-10-26T01:56:39;10.15;;;5.57;;
23670;SDS011;12012;51.998;7.614;2022-10-26T02:12:50;7.35;;;5.88;;
23670;SDS011;12012;51.998;7.614;2022-10-26T02:15:52;11.68;;;6.88;;
23670;SDS011;12012;51.998;7.614;2022-10-26T02:18:30;8.05;;;6.32;;
23670;SDS011;12012;51.998;7.614;2022-10-26T02:21:08;7.07;;;5.85;;
23670;SDS011;12012;51.998;7.614;2022-10-26T02:23:42;7.30;;;5.18;;
23670;SDS011;12012;51.998;7.614;2022-10-26T02:26:12;7.88;;;6.15;;
23670;SDS011;12012;51.998;7.614;2022-10-26T02:28:42;7.07;;;5.25;;
23670;SDS011;12012;51.998;7.614;2022-10-26T02:31:10;7.20;;;5.55;;
23670;SDS011;12012;51.998;7.614;2022-10-26T02:33:40;6.90;;;5.50;;
23670;SDS011;12012;51.998;7.614;2022-10-26T02:36:13;5.95;;;5.35;;
23670;SDS011;12012;51.998;7.614;2022-10-26T02:38:43;5.85;;;5.25;;
23670;SDS011;12012;51.998;7.614;2022-10-26T02:41:11;5.65;;;4.85;;
23670;SDS011;12012;51.998;7.614;2022-10-26T02:43:40;8.48;;;4.85;;
23670;SDS011;12012;51.998;7.614;2022-10-26T02:46:13;5.45;;;4.47;;
23670;SDS011;12012;51.998;7.614;2022-10-26T02:48:41;6.10;;;5.20;;
23670;SDS011;12012;51.998;7.614;2022-10-26T02:56:21;8.57;;;5.65;;
23670;SDS011;12012;51.998;7.614;2022-10-26T02:58:53;7.50;;;4.50;;
23670;SDS011;12012;51.998;7.614;2022-10-26T03:01:23;6.20;;;4.75;;
23670;SDS011;12012;51.998;7.614;2022-10-26T03:03:50;8.57;;;6.63;;
23670;SDS011;12012;51.998;7.614;2022-10-26T03:06:21;6.30;;;5.70;;
23670;SDS011;12012;51.998;7.614;2022-10-26T03:08:48;10.32;;;6.00;;
23670;SDS011;12012;51.998;7.614;2022-10-26T03:11:14;7.28;;;4.32;;
23670;SDS011;12012;51.998;7.614;2022-10-26T03:13:40;9.93;;;6.18;;
23670;SDS011;12012;51.998;7.614;2022-10-26T03:16:05;8.77;;;5.82;;
23670;SDS011;12012;51.998;7.614;2022-10-26T03:18:31;7.50;;;5.18;;
23670;SDS011;12012;51.998;7.614;2022-10-26T03:20:57;5.25;;;4.65;;
23670;SDS011;12012;51.998;7.614;2022-10-26T03:23:22;7.70;;;5.10;;
23670;SDS011;12012;51.998;7.614;2022-10-26T03:25:48;6.55;;;4.97;;
23670;SDS011;12012;51.998;7.614;2022-10-26T03:28:13;7.55;;;5.65;;
23670;SDS011;12012;51.998;7.614;2022-10-26T03:30:39;6.28;;;4.30;;
23670;SDS011;12012;51.998;7.614;2022-10-26T03:33:04;7.30;;;5.32;;
23670;SDS011;12012;51.998;7.614;2022-10-26T03:35:30;8.32;;;5.93;;
23670;SDS011;12012;51.998;7.614;2022-10-26T03:37:56;9.02;;;6.03;;
23670;SDS011;12012;51.998;7.614;2022-10-26T03:40:22;8.95;;;6.10;;
23670;SDS011;12012;51.998;7.614;2022-10-26T03:42:47;8.15;;;5.70;;
23670;SDS011;12012;51.998;7.614;2022-10-26T03:45:13;7.93;;;5.18;;
23670;SDS011;12012;51.998;7.614;2022-10-26T03:47:42;9.00;;;6.38;;
23670;SDS011;12012;51.998;7.614;2022-10-26T03:50:12;9.35;;;7.15;;
23670;SDS011;12012;51.998;7.614;2022-10-26T03:52:39;10.82;;;6.85;;
23670;SDS011;12012;51.998;7.614;2022-10-26T03:55:05;8.43;;;5.85;;
23670;SDS011;12012;51.998;7.614;2022-10-26T03:57:31;7.97;;;5.63;;
23670;SDS011;12012;51.998;7.614;2022-10-26T03:59:56;7.10;;;5.57;;
23670;SDS011;12012;51.998;7.614;2022-10-26T04:02:22;7.18;;;5.38;;
23670;SDS011;12012;51.998;7.614;2022-10-26T04:04:48;6.57;;;5.53;;
23670;SDS011;12012;51.998;7.614;2022-10-26T04:07:13;6.88;;;5.45;;
23670;SDS011;12012;51.998;7.614;2022-10-26T04:09:39;7.63;;;6.35;;
23670;SDS011;12012;51.998;7.614;2022-10-26T04:12:04;6.80;;;4.63;;
23670;SDS011;12012;51.998;7.614;2022-10-26T04:14:30;8.75;;;5.63;;
23670;SDS011;12012;51.998;7.614;2022-10-26T04:16:56;8.75;;;5.78;;
23670;SDS011;12012;51.998;7.614;2022-10-26T04:19:21;5.53;;;4.60;;
23670;SDS011;12012;51.998;7.614;2022-10-26T04:21:47;8.15;;;5.93;;
23670;SDS011;12012;51.998;7.614;2022-10-26T04:24:14;8.25;;;6.55;;
23670;SDS011;12012;51.998;7.614;2022-10-26T04:26:40;9.70;;;5.20;;
23670;SDS011;12012;51.998;7.614;2022-10-26T04:29:05;8.32;;;5.75;;
23670;SDS011;12012;51.998;7.614;2022-10-26T04:31:32;6.50;;;5.30;;
23670;SDS011;12012;51.998;7.614;2022-10-26T04:33:57;7.38;;;4.63;;
23670;SDS011;12012;51.998;7.614;2022-10-26T04:36:23;7.15;;;4.72;;
23670;SDS011;12012;51.998;7.614;2022-10-26T04:38:48;8.20;;;5.35;;
23670;SDS011;12012;51.998;7.614;2022-10-26T04:41:14;9.60;;;6.20;;
23670;SDS011;12012;51.998;7.614;2022-10-26T04:43:40;7.40;;;5.10;;
23670;SDS011;12012;51.998;7.614;2022-10-26T04:46:05;7.60;;;5.28;;
23670;SDS011;12012;51.998;7.614;2022-10-26T04:48:31;8.18;;;4.95;;
23670;SDS011;12012;51.998;7.614;2022-10-26T04:51:00;9.05;;;6.32;;
23670;SDS011;12012;51.998;7.614;2022-10-26T04:53:25;6.88;;;5.85;;
23670;SDS011;12012;51.998;7.614;2022-10-26T04:55:55;9.93;;;6.22;;
23670;SDS011;12012;51.998;7.614;2022-10-26T04:58:24;7.07;;;5.60;;
23670;SDS011;12012;51.998;7.614;2022-10-26T05:00:50;7.18;;;5.10;;
23670;SDS011;12012;51.998;7.614;2022-10-26T05:03:15;6.70;;;5.20;;
23670;SDS011;12012;51.998;7.614;2022-10-26T05:05:41;4.88;;;4.35;;
23670;SDS011;12012;51.998;7.614;2022-10-26T05:08:06;5.25;;;4.65;;
23670;SDS011;12012;51.998;7.614;2022-10-26T05:10:32;7.30;;;5.00;;
23670;SDS011;12012;51.998;7.614;2022-10-26T05:12:58;5.82;;;4.43;;
23670;SDS011;12012;51.998;7.614;2022-10-26T05:15:25;9.93;;;4.80;;
23670;SDS011;12012;51.998;7.614;2022-10-26T05:17:54;6.85;;;5.38;;
23670;SDS011;12012;51.998;7.614;2022-10-26T05:20:28;9.73;;;5.80;;
23670;SDS011;12012;51.998;7.614;2022-10-26T05:23:02;6.30;;;4.78;;
23670;SDS011;12012;51.998;7.614;2022-10-26T05:25:30;5.85;;;4.80;;
23670;SDS011;12012;51.998;7.614;2022-10-26T05:27:59;7.28;;;6.07;;
23670;SDS011;12012;51.998;7.614;2022-10-26T05:30:29;5.15;;;4.40;;
23670;SDS011;12012;51.998;7.614;2022-10-26T05:32:55;7.95;;;6.07;;
23670;SDS011;12012;51.998;7.614;2022-10-26T05:35:21;10.98;;;5.70;;
23670;SDS011;12012;51.998;7.614;2022-10-26T05:37:47;10.02;;;5.85;;
23670;SDS011;12012;51.998;7.614;2022-10-26T05:40:13;6.45;;;4.50;;
23670;SDS011;12012;51.998;7.614;2022-10-26T05:42:40;7.97;;;5.03;;
23670;SDS011;12012;51.998;7.614;2022-10-26T05:45:06;6.43;;;4.55;;
23670;SDS011;12012;51.998;7.614;2022-10-26T05:47:32;5.97;;;4.45;;
23670;SDS011;12012;51.998;7.614;2022-10-26T05:50:01;10.60;;;7.90;;
23670;SDS011;12012;51.998;7.614;2022-10-26T05:52:27;11.25;;;6.85;;
23670;SDS011;12012;51.998;7.614;2022-10-26T05:54:52;11.75;;;6.53;;
23670;SDS011;12012;51.998;7.614;2022-10-26T05:57:20;11.43;;;5.45;;
23670;SDS011;12012;51.998;7.614;2022-10-26T05:59:46;7.13;;;5.25;;
23670;SDS011;12012;51.998;7.614;2022-10-26T06:04:50;5.32;;;4.80;;
23670;SDS011;12012;51.998;7.614;2022-10-26T06:07:18;6.78;;;5.28;;
23670;SDS011;12012;51.998;7.614;2022-10-26T06:09:45;6.43;;;5.40;;
23670;SDS011;12012;51.998;7.614;2022-10-26T06:12:11;7.57;;;4.85;;
23670;SDS011;12012;51.998;7.614;2022-10-26T06:14:38;8.90;;;6.85;;
23670;SDS011;12012;51.998;7.614;2022-10-26T06:25:28;6.13;;;4.57;;
23670;SDS011;12012;51.998;7.614;2022-10-26T06:28:23;11.25;;;7.43;;
23670;SDS011;12012;51.998;7.614;2022-10-26T06:30:52;8.70;;;5.35;;
23670;SDS011;12012;51.998;7.614;2022-10-26T06:33:17;9.55;;;5.18;;
23670;SDS011;12012;51.998;7.614;2022-10-26T06:35:54;5.70;;;5.10;;
23670;SDS011;12012;51.998;7.614;2022-10-26T06:38:30;9.57;;;7.55;;
23670;SDS011;12012;51.998;7.614;2022-10-26T06:40:59;8.02;;;5.20;;
23670;SDS011;12012;51.998;7.614;2022-10-26T06:43:29;6.40;;;4.28;;
23670;SDS011;12012;51.998;7.614;2022-10-26T06:49:01;7.53;;;4.93;;
23670;SDS011;12012;51.998;7.614;2022-10-26T06:51:44;5.45;;;4.15;;
23670;SDS011;12012;51.998;7.614;2022-10-26T06:57:09;8.30;;;4.68;;
23670;SDS011;12012;51.998;7.614;2022-10-26T06:59:52;7.05;;;4.63;;
23670;SDS011;12012;51.998;7.614;2022-10-26T07:02:20;5.93;;;4.32;;
23670;SDS011;12012;51.998;7.614;2022-10-26T07:04:46;5.80;;;4.22;;
23670;SDS011;12012;51.998;7.614;2022-10-26T07:07:16;5.85;;;3.72;;
23670;SDS011;12012;51.998;7.614;2022-10-26T07:09:44;7.47;;;4.70;;
23670;SDS011;12012;51.998;7.614;2022-10-26T07:12:09;5.78;;;4.30;;
23670;SDS011;12012;51.998;7.614;2022-10-26T07:14:35;7.05;;;4.07;;
23670;SDS011;12012;51.998;7.614;2022-10-26T07:17:00;8.90;;;5.60;;
23670;SDS011;12012;51.998;7.614;2022-10-26T07:19:26;8.68;;;5.78;;
23670;SDS011;12012;51.998;7.614;2022-10-26T07:21:55;6.25;;;4.95;;
23670;SDS011;12012;51.998;7.614;2022-10-26T07:24:23;4.75;;;4.10;;
23670;SDS011;12012;51.998;7.614;2022-10-26T07:26:49;4.85;;;4.00;;
23670;SDS011;12012;51.998;7.614;2022-10-26T07:29:15;7.43;;;5.53;;
23670;SDS011;12012;51.998;7.614;2022-10-26T07:31:42;5.93;;;4.60;;
23670;SDS011;12012;51.998;7.614;2022-10-26T07:34:07;6.95;;;4.43;;
23670;SDS011;12012;51.998;7.614;2022-10-26T07:36:33;7.38;;;4.93;;
23670;SDS011;12012;51.998;7.614;2022-10-26T07:39:00;5.60;;;4.57;;
23670;SDS011;12012;51.998;7.614;2022-10-26T07:41:27;7.25;;;4.30;;
23670;SDS011;12012;51.998;7.614;2022-10-26T07:43:52;6.22;;;3.90;;
23670;SDS011;12012;51.998;7.614;2022-10-26T07:46:18;5.22;;;4.20;;
23670;SDS011;12012;51.998;7.614;2022-10-26T07:48:43;7.65;;;5.45;;
23670;SDS011;12012;51.998;7.614;2022-10-26T07:51:09;7.28;;;4.10;;
23670;SDS011;12012;51.998;7.614;2022-10-26T07:53:35;7.90;;;5.63;;
23670;SDS011;12012;51.998;7.614;2022-10-26T07:56:00;5.57;;;4.43;;
23670;SDS011;12012;51.998;7.614;2022-10-26T07:58:26;6.38;;;4.70;;
23670;SDS011;12012;51.998;7.614;2022-10-26T08:00:52;4.53;;;3.90;;
23670;SDS011;12012;51.998;7.614;2022-10-26T08:03:18;6.07;;;4.22;;
23670;SDS011;12012;51.998;7.614;2022-10-26T08:05:45;6.38;;;3.60;;
23670;SDS011;12012;51.998;7.614;2022-10-26T08:08:12;8.32;;;5.38;;
23670;SDS011;12012;51.998;7.614;2022-10-26T08:10:41;7.05;;;3.85;;
23670;SDS011;12012;51.998;7.614;2022-10-26T08:13:07;6.63;;;4.30;;
23670;SDS011;12012;51.998;7.614;2022-10-26T08:15:33;3.97;;;3.35;;
23670;SDS011;12012;51.998;7.614;2022-10-26T08:17:59;5.28;;;3.95;;
23670;SDS011;12012;51.998;7.614;2022-10-26T08:20:24;9.38;;;5.00;;
23670;SDS011;12012;51.998;7.614;2022-10-26T08:22:50;5.80;;;3.88;;
23670;SDS011;12012;51.998;7.614;2022-10-26T08:25:16;5.35;;;4.28;;
23670;SDS011;12012;51.998;7.614;2022-10-26T08:27:42;5.55;;;4.43;;
23670;SDS011;12012;51.998;7.614;2022-10-26T08:30:08;9.23;;;4.53;;
23670;SDS011;12012;51.998;7.614;2022-10-26T08:32:34;5.57;;;4.28;;
23670;SDS011;12012;51.998;7.614;2022-10-26T08:34:59;9.68;;;4.85;;
23670;SDS011;12012;51.998;7.614;2022-10-26T08:37:25;7.38;;;4.75;;
23670;SDS011;12012;51.998;7.614;2022-10-26T08:39:51;7.30;;;4.45;;
23670;SDS011;12012;51.998;7.614;2022-10-26T08:42:21;10.43;;;5.22;;
23670;SDS011;12012;51.998;7.614;2022-10-26T08:44:58;6.95;;;3.78;;
23670;SDS011;12012;51.998;7.614;2022-10-26T08:47:29;4.53;;;3.50;;
23670;SDS011;12012;51.998;7.614;2022-10-26T08:52:38;6.88;;;3.70;;
23670;SDS011;12012;51.998;7.614;2022-10-26T08:55:10;5.60;;;3.47;;
23670;SDS011;12012;51.998;7.614;2022-10-26T08:57:40;7.07;;;3.63;;
23670;SDS011;12012;51.998;7.614;2022-10-26T09:00:10;7.88;;;3.50;;
23670;SDS011;12012;51.998;7.614;2022-10-26T09:02:39;6.68;;;4.13;;
23670;SDS011;12012;51.998;7.614;2022-10-26T09:05:08;5.47;;;3.55;;
23670;SDS011;12012;51.998;7.614;2022-10-26T09:13:05;5.07;;;3.70;;
23670;SDS011;12012;51.998;7.614;2022-10-26T09:16:01;9.00;;;3.13;;
23670;SDS011;12012;51.998;7.614;2022-10-26T09:24:38;3.47;;;2.60;;
23670;SDS011;12012;51.998;7.614;2022-10-26T09:27:12;8.65;;;3.20;;
23670;SDS011;12012;51.998;7.614;2022-10-26T09:29:41;8.77;;;4.00;;
23670;SDS011;12012;51.998;7.614;2022-10-26T09:32:20;6.68;;;3.30;;
23670;SDS011;12012;51.998;7.614;2022-10-26T09:34:56;7.88;;;3.15;;
23670;SDS011;12012;51.998;7.614;2022-10-26T09:37:27;5.25;;;2.63;;
23670;SDS011;12012;51.998;7.614;2022-10-26T09:43:28;4.40;;;2.33;;
23670;SDS011;12012;51.998;7.614;2022-10-26T09:45:41;5.50;;;2.83;;
23670;SDS011;12012;51.998;7.614;2022-10-26T09:48:12;5.95;;;2.85;;
23670;SDS011;12012;51.998;7.614;2022-10-26T09:51:00;3.97;;;2.30;;
23670;SDS011;12012;51.998;7.614;2022-10-26T09:53:26;4.20;;;2.42;;
23670;SDS011;12012;51.998;7.614;2022-10-26T09:55:59;9.68;;;2.53;;
23670;SDS011;12012;51.998;7.614;2022-10-26T09:58:35;7.60;;;2.40;;
23670;SDS011;12012;51.998;7.614;2022-10-26T10:01:20;5.80;;;2.58;;
23670;SDS011;12012;51.998;7.614;2022-10-26T10:03:46;6.28;;;2.25;;
23670;SDS011;12012;51.998;7.614;2022-10-26T10:06:13;5.80;;;2.20;;
23670;SDS011;12012;51.998;7.614;2022-10-26T10:08:44;6.63;;;2.35;;
23670;SDS011;12012;51.998;7.614;2022-10-26T10:11:45;5.78;;;2.80;;
23670;SDS011;12012;51.998;7.614;2022-10-26T10:14:19;6.70;;;2.13;;
23670;SDS011;12012;51.998;7.614;2022-10-26T10:19:25;6.03;;;2.55;;
23670;SDS011;12012;51.998;7.614;2022-10-26T10:21:59;2.72;;;1.75;;
23670;SDS011;12012;51.998;7.614;2022-10-26T10:24:32;4.50;;;1.70;;
23670;SDS011;12012;51.998;7.614;2022-10-26T10:27:04;6.85;;;2.20;;
23670;SDS011;12012;51.998;7.614;2022-10-26T10:29:47;3.28;;;1.80;;
23670;SDS011;12012;51.998;7.614;2022-10-26T10:32:15;2.83;;;1.77;;
23670;SDS011;12012;51.998;7.614;2022-10-26T10:34:49;2.60;;;1.48;;
23670;SDS011;12012;51.998;7.614;2022-10-26T10:37:28;7.47;;;2.92;;
23670;SDS011;12012;51.998;7.614;2022-10-26T10:40:18;3.10;;;2.10;;
23670;SDS011;12012;51.998;7.614;2022-10-26T10:42:46;7.20;;;2.10;;
23670;SDS011;12012;51.998;7.614;2022-10-26T10:45:18;4.75;;;1.80;;
23670;SDS011;12012;51.998;7.614;2022-10-26T10:47:56;3.78;;;1.80;;
23670;SDS011;12012;51.998;7.614;2022-10-26T10:50:38;7.22;;;2.00;;
23670;SDS011;12012;51.998;7.614;2022-10-26T10:53:15;4.57;;;2.25;;
23670;SDS011;12012;51.998;7.614;2022-10-26T10:56:12;4.60;;;2.25;;
23670;SDS011;12012;51.998;7.614;2022-10-26T11:01:39;5.30;;;1.92;;
23670;SDS011;12012;51.998;7.614;2022-10-26T11:06:44;5.15;;;2.00;;
23670;SDS011;12012;51.998;7.614;2022-10-26T11:09:13;5.68;;;1.98;;
23670;SDS011;12012;51.998;7.614;2022-10-26T11:11:43;4.43;;;1.92;;
23670;SDS011;12012;51.998;7.614;2022-10-26T11:14:11;4.38;;;1.90;;
23670;SDS011;12012;51.998;7.614;2022-10-26T11:16:46;5.47;;;2.03;;
23670;SDS011;12012;51.998;7.614;2022-10-26T11:21:44;8.18;;;1.92;;
23670;SDS011;12012;51.998;7.614;2022-10-26T11:24:15;6.88;;;1.70;;
23670;SDS011;12012;51.998;7.614;2022-10-26T11:26:51;5.10;;;1.83;;
23670;SDS011;12012;51.998;7.614;2022-10-26T11:29:32;4.05;;;1.85;;
23670;SDS011;12012;51.998;7.614;2022-10-26T11:32:20;7.95;;;2.10;;
23670;SDS011;12012;51.998;7.614;2022-10-26T11:35:32;5.07;;;1.80;;
23670;SDS011;12012;51.998;7.614;2022-10-26T11:37:53;6.55;;;2.05;;
23670;SDS011;12012;51.998;7.614;2022-10-26T11:40:29;3.40;;;1.73;;
23670;SDS011;12012;51.998;7.614;2022-10-26T11:46:35;5.05;;;1.65;;
23670;SDS011;12012;51.998;7.614;2022-10-26T11:51:37;6.03;;;2.10;;
23670;SDS011;12012;51.998;7.614;2022-10-26T11:54:28;6.15;;;2.08;;
23670;SDS011;12012;51.998;7.614;2022-10-26T11:56:56;4.68;;;1.42;;
23670;SDS011;12012;51.998;7.614;2022-10-26T11:59:24;3.30;;;1.85;;
23670;SDS011;12012;51.998;7.614;2022-10-26T12:01:53;8.02;;;1.73;;
23670;SDS011;12012;51.998;7.614;2022-10-26T12:04:24;7.57;;;2.00;;
23670;SDS011;12012;51.998;7.614;2022-10-26T12:06:55;4.22;;;1.80;;
23670;SDS011;12012;51.998;7.614;2022-10-26T12:09:31;3.00;;;1.60;;
23670;SDS011;12012;51.998;7.614;2022-10-26T12:14:40;4.20;;;1.55;;
23670;SDS011;12012;51.998;7.614;2022-10-26T12:22:19;3.28;;;1.60;;
23670;SDS011;12012;51.998;7.614;2022-10-26T12:25:03;5.80;;;1.58;;
23670;SDS011;12012;51.998;7.614;2022-10-26T12:37:59;3.42;;;2.08;;
23670;SDS011;12012;51.998;7.614;2022-10-26T12:40:45;4.57;;;2.03;;
23670;SDS011;12012;51.998;7.614;2022-10-26T12:45:37;7.95;;;1.90;;
23670;SDS011;12012;51.998;7.614;2022-10-26T12:48:04;5.22;;;2.05;;
23670;SDS011;12012;51.998;7.614;2022-10-26T12:50:44;7.97;;;2.40;;
23670;SDS011;12012;51.998;7.614;2022-10-26T12:53:11;4.75;;;2.17;;
23670;SDS011;12012;51.998;7.614;2022-10-26T13:06:36;7.30;;;2.47;;
23670;SDS011;12012;51.998;7.614;2022-10-26T13:09:16;4.20;;;2.20;;
23670;SDS011;12012;51.998;7.614;2022-10-26T13:11:46;6.07;;;2.00;;
23670;SDS011;12012;51.998;7.614;2022-10-26T13:19:42;8.48;;;2.35;;
23670;SDS011;12012;51.998;7.614;2022-10-26T13:22:13;5.97;;;2.50;;
23670;SDS011;12012;51.998;7.614;2022-10-26T13:24:47;6.68;;;2.30;;
23670;SDS011;12012;51.998;7.614;2022-10-26T13:32:29;4.78;;;2.17;;
23670;SDS011;12012;51.998;7.614;2022-10-26T13:35:04;4.65;;;2.22;;
23670;SDS011;12012;51.998;7.614;2022-10-26T13:37:35;8.55;;;2.67;;
23670;SDS011;12012;51.998;7.614;2022-10-26T13:40:05;5.90;;;2.30;;
23670;SDS011;12012;51.998;7.614;2022-10-26T13:42:37;10.38;;;2.63;;
23670;SDS011;12012;51.998;7.614;2022-10-26T13:45:13;5.47;;;2.20;;
23670;SDS011;12012;51.998;7.614;2022-10-26T13:50:53;6.45;;;2.17;;
23670;SDS011;12012;51.998;7.614;2022-10-26T13:53:43;6.60;;;2.47;;
23670;SDS011;12012;51.998;7.614;2022-10-26T13:56:32;5.63;;;2.55;;
23670;SDS011;12012;51.998;7.614;2022-10-26T13:59:04;7.75;;;2.95;;
23670;SDS011;12012;51.998;7.614;2022-10-26T14:01:33;10.35;;;2.85;;
23670;SDS011;12012;51.998;7.614;2022-10-26T14:04:13;7.68;;;2.60;;
23670;SDS011;12012;51.998;7.614;2022-10-26T14:06:45;5.88;;;2.70;;
23670;SDS011;12012;51.998;7.614;2022-10-26T14:09:14;5.13;;;2.42;;
23670;SDS011;12012;51.998;7.614;2022-10-26T14:11:49;5.43;;;2.42;;
23670;SDS011;12012;51.998;7.614;2022-10-26T14:14:21;5.32;;;2.30;;
23670;SDS011;12012;51.998;7.614;2022-10-26T14:16:51;7.30;;;2.45;;
23670;SDS011;12012;51.998;7.614;2022-10-26T14:19:20;6.40;;;2.47;;
23670;SDS011;12012;51.998;7.614;2022-10-26T14:24:19;9.88;;;2.42;;
23670;SDS011;12012;51.998;7.614;2022-10-26T14:26:46;6.72;;;2.58;;
23670;SDS011;12012;51.998;7.614;2022-10-26T14:29:16;6.18;;;2.47;;
23670;SDS011;12012;51.998;7.614;2022-10-26T14:31:46;8.15;;;2.00;;
23670;SDS011;12012;51.998;7.614;2022-10-26T14:34:14;4.80;;;1.92;;
23670;SDS011;12012;51.998;7.614;2022-10-26T14:36:47;6.47;;;2.47;;
23670;SDS011;12012;51.998;7.614;2022-10-26T14:39:27;6.65;;;2.30;;
23670;SDS011;12012;51.998;7.614;2022-10-26T14:41:58;5.70;;;2.40;;
23670;SDS011;12012;51.998;7.614;2022-10-26T14:44:36;6.00;;;2.03;;
23670;SDS011;12012;51.998;7.614;2022-10-26T14:47:02;5.05;;;2.13;;
23670;SDS011;12012;51.998;7.614;2022-10-26T14:49:28;5.03;;;2.50;;
23670;SDS011;12012;51.998;7.614;2022-10-26T14:51:58;4.80;;;2.00;;
23670;SDS011;12012;51.998;7.614;2022-10-26T14:54:28;5.72;;;2.40;;
23670;SDS011;12012;51.998;7.614;2022-10-26T14:56:54;8.32;;;1.98;;
23670;SDS011;12012;51.998;7.614;2022-10-26T14:59:25;5.25;;;2.08;;
23670;SDS011;12012;51.998;7.614;2022-10-26T15:04:40;5.60;;;2.15;;
23670;SDS011;12012;51.998;7.614;2022-10-26T15:15:08;6.90;;;2.17;;
23670;SDS011;12012;51.998;7.614;2022-10-26T15:17:50;4.82;;;2.20;;
23670;SDS011;12012;51.998;7.614;2022-10-26T15:20:19;5.22;;;2.30;;
23670;SDS011;12012;51.998;7.614;2022-10-26T15:23:04;4.55;;;2.03;;
23670;SDS011;12012;51.998;7.614;2022-10-26T15:25:31;7.45;;;2.15;;
23670;SDS011;12012;51.998;7.614;2022-10-26T15:28:10;5.53;;;2.03;;
23670;SDS011;12012;51.998;7.614;2022-10-26T15:33:42;6.13;;;2.25;;
23670;SDS011;12012;51.998;7.614;2022-10-26T15:36:29;6.80;;;2.42;;
23670;SDS011;12012;51.998;7.614;2022-10-26T15:38:56;6.15;;;3.05;;
23670;SDS011;12012;51.998;7.614;2022-10-26T15:41:29;4.25;;;2.30;;
23670;SDS011;12012;51.998;7.614;2022-10-26T15:43:57;6.07;;;2.83;;
23670;SDS011;12012;51.998;7.614;2022-10-26T15:46:30;4.75;;;2.25;;
23670;SDS011;12012;51.998;7.614;2022-10-26T15:48:58;5.07;;;2.22;;
23670;SDS011;12012;51.998;7.614;2022-10-26T15:51:25;4.38;;;2.40;;
23670;SDS011;12012;51.998;7.614;2022-10-26T15:53:53;4.15;;;2.30;;
23670;SDS011;12012;51.998;7.614;2022-10-26T15:56:20;5.47;;;2.38;;
23670;SDS011;12012;51.998;7.614;2022-10-26T15:58:47;4.18;;;2.40;;
23670;SDS011;12012;51.998;7.614;2022-10-26T16:01:17;7.10;;;2.85;;
23670;SDS011;12012;51.998;7.614;2022-10-26T16:03:44;5.65;;;2.47;;
23670;SDS011;12012;51.998;7.614;2022-10-26T16:06:12;5.45;;;2.58;;
23670;SDS011;12012;51.998;7.614;2022-10-26T16:08:49;8.68;;;3.17;;
23670;SDS011;12012;51.998;7.614;2022-10-26T16:11:16;7.82;;;4.97;;
23670;SDS011;12012;51.998;7.614;2022-10-26T16:13:42;6.25;;;3.63;;
23670;SDS011;12012;51.998;7.614;2022-10-26T16:16:11;7.07;;;3.63;;
23670;SDS011;12012;51.998;7.614;2022-10-26T16:18:38;8.43;;;3.95;;
23670;SDS011;12012;51.998;7.614;2022-10-26T16:21:04;6.93;;;3.13;;
23670;SDS011;12012;51.998;7.614;2022-10-26T16:23:30;5.05;;;3.47;;
23670;SDS011;12012;51.998;7.614;2022-10-26T16:25:56;9.90;;;4.72;;
23670;SDS011;12012;51.998;7.614;2022-10-26T16:28:21;8.65;;;3.92;;
23670;SDS011;12012;51.998;7.614;2022-10-26T16:30:47;7.03;;;3.78;;
23670;SDS011;12012;51.998;7.614;2022-10-26T16:33:13;4.85;;;3.25;;
23670;SDS011;12012;51.998;7.614;2022-10-26T16:35:38;4.93;;;3.30;;
23670;SDS011;12012;51.998;7.614;2022-10-26T16:38:04;6.07;;;3.75;;
23670;SDS011;12012;51.998;7.614;2022-10-26T16:40:30;5.95;;;3.40;;
23670;SDS011;12012;51.998;7.614;2022-10-26T16:42:56;5.93;;;3.60;;
23670;SDS011;12012;51.998;7.614;2022-10-26T16:45:21;5.07;;;3.45;;
23670;SDS011;12012;51.998;7.614;2022-10-26T16:47:47;4.53;;;3.28;;
23670;SDS011;12012;51.998;7.614;2022-10-26T16:50:12;6.63;;;3.70;;
23670;SDS011;12012;51.998;7.614;2022-10-26T16:52:39;5.93;;;3.53;;
23670;SDS011;12012;51.998;7.614;2022-10-26T16:55:05;4.70;;;2.80;;
23670;SDS011;12012;51.998;7.614;2022-10-26T16:57:32;6.40;;;4.03;;
23670;SDS011;12012;51.998;7.614;2022-10-26T16:59:59;6.90;;;4.13;;
23670;SDS011;12012;51.998;7.614;2022-10-26T17:02:25;6.60;;;3.40;;
23670;SDS011;12012;51.998;7.614;2022-10-26T17:04:50;6.28;;;3.67;;
23670;SDS011;12012;51.998;7.614;2022-10-26T17:07:16;5.65;;;3.75;;
23670;SDS011;12012;51.998;7.614;2022-10-26T17:09:42;6.72;;;4.28;;
23670;SDS011;12012;51.998;7.614;2022-10-26T17:12:07;7.38;;;4.25;;
23670;SDS011;12012;51.998;7.614;2022-10-26T17:14:35;10.95;;;5.70;;
23670;SDS011;12012;51.998;7.614;2022-10-26T17:17:01;8.90;;;4.80;;
23670;SDS011;12012;51.998;7.614;2022-10-26T17:19:27;6.18;;;3.72;;
23670;SDS011;12012;51.998;7.614;2022-10-26T17:21:53;8.57;;;4.50;;
23670;SDS011;12012;51.998;7.614;2022-10-26T17:24:18;11.27;;;4.53;;
23670;SDS011;12012;51.998;7.614;2022-10-26T17:26:44;6.20;;;3.60;;
23670;SDS011;12012;51.998;7.614;2022-10-26T17:29:11;5.22;;;3.67;;
23670;SDS011;12012;51.998;7.614;2022-10-26T17:31:37;7.75;;;4.38;;